Time;durP1;ratioP1;P1;durP2;ratioP2;P2;SDS_P1;SDS_P2;PMS_P1;PMS_P2;Temp;Humidity;BMP_temperature;BMP_pressure;BME280_temperature;BME280_humidity;BME280_pressure;Samples;Min_cycle;Max_cycle;Signal;HPM_P1;HPM_P2
2021/12/19 00:09:08;;;;;;;21.83;16.00;;;5.00;85.20;;;;;;5004160;28;20431;-80
2021/12/19 00:11:34;;;;;;;20.35;15.15;;;5.10;85.50;;;;;;4992728;28;20054;-80
2021/12/19 00:14:01;;;;;;;19.92;15.85;;;5.10;85.30;;;;;;5005960;28;20391;-80
2021/12/19 00:16:27;;;;;;;20.35;16.15;;;5.20;85.00;;;;;;5010786;28;20042;-79
2021/12/19 00:18:53;;;;;;;20.10;16.10;;;5.20;84.90;;;;;;5014115;28;20049;-80
2021/12/19 00:21:20;;;;;;;18.17;15.05;;;5.30;84.70;;;;;;5013625;28;20475;-80
2021/12/19 00:23:48;;;;;;;20.02;15.75;;;5.20;84.50;;;;;;4996952;28;20493;-80
2021/12/19 00:26:18;;;;;;;21.05;16.15;;;5.30;84.60;;;;;;4999850;28;20053;-80
2021/12/19 00:28:45;;;;;;;26.70;17.40;;;5.30;84.70;;;;;;4986978;28;20045;-80
2021/12/19 00:31:11;;;;;;;19.30;15.15;;;5.30;84.40;;;;;;5003650;28;20053;-81
2021/12/19 00:33:39;;;;;;;22.13;14.57;;;5.30;83.80;;;;;;4995846;28;20162;-81
2021/12/19 00:36:06;;;;;;;21.08;16.20;;;5.10;84.20;;;;;;5009823;28;20061;-81
2021/12/19 00:38:32;;;;;;;46.17;17.30;;;5.10;84.60;;;;;;5001952;28;20034;-81
2021/12/19 00:40:58;;;;;;;21.02;15.70;;;5.10;84.70;;;;;;5006290;28;20100;-81
2021/12/19 00:43:36;;;;;;;20.17;15.05;;;4.90;85.30;;;;;;4995920;28;20041;-81
2021/12/19 00:46:07;;;;;;;21.50;16.50;;;4.90;85.60;;;;;;4992472;28;20041;-81
2021/12/19 00:48:35;;;;;;;21.45;16.70;;;4.90;85.60;;;;;;5001583;28;20065;-80
2021/12/19 00:51:03;;;;;;;21.45;16.08;;;5.00;85.40;;;;;;4991709;28;20037;-81
2021/12/19 00:53:28;;;;;;;23.67;16.75;;;5.10;85.20;;;;;;5014276;28;20455;-81
2021/12/19 00:55:54;;;;;;;22.63;16.90;;;5.10;84.90;;;;;;4998294;28;20129;-80
2021/12/19 00:58:20;;;;;;;22.77;16.92;;;5.10;84.90;;;;;;4995328;28;20433;-81
2021/12/19 01:00:46;;;;;;;20.50;15.52;;;5.20;84.90;;;;;;5002568;28;20042;-80
2021/12/19 01:03:11;;;;;;;18.65;15.63;;;5.10;84.70;;;;;;5013107;28;20478;-80
2021/12/19 01:05:39;;;;;;;20.85;16.23;;;5.20;84.60;;;;;;4996169;28;20038;-80
2021/12/19 01:08:06;;;;;;;20.33;15.55;;;5.20;84.30;;;;;;4985626;28;20546;-81
2021/12/19 01:10:32;;;;;;;20.77;16.50;;;5.20;84.30;;;;;;5007744;28;20050;-80
2021/12/19 01:13:01;;;;;;;17.98;14.95;;;5.20;84.20;;;;;;4989360;28;20409;-81
2021/12/19 01:15:27;;;;;;;16.23;12.85;;;5.20;84.20;;;;;;4987408;28;20041;-81
2021/12/19 01:17:53;;;;;;;69.05;30.00;;;5.20;83.70;;;;;;5009931;28;20390;-82
2021/12/19 01:20:22;;;;;;;29.15;21.73;;;4.90;83.60;;;;;;4981528;28;20087;-84
2021/12/19 01:26:23;;;;;;;17.92;13.85;;;4.70;85.30;;;;;;5006373;28;20081;-82
2021/12/19 01:28:49;;;;;;;22.63;14.70;;;4.70;85.70;;;;;;5008379;28;20034;-82
2021/12/19 01:31:14;;;;;;;76.20;22.55;;;4.70;85.70;;;;;;5005894;28;20423;-82
2021/12/19 01:33:40;;;;;;;19.67;14.55;;;4.70;85.70;;;;;;5012994;28;20038;-82
2021/12/19 01:36:06;;;;;;;19.75;14.95;;;4.70;85.60;;;;;;5011132;28;20042;-82
2021/12/19 01:38:32;;;;;;;37.22;17.35;;;4.70;85.60;;;;;;4995340;28;20503;-81
2021/12/19 01:40:58;;;;;;;21.08;14.27;;;4.70;85.30;;;;;;5002942;28;20038;-82
2021/12/19 01:43:27;;;;;;;29.85;16.85;;;4.60;85.50;;;;;;5010448;28;20038;-81
2021/12/19 01:45:54;;;;;;;18.70;13.50;;;4.60;85.20;;;;;;5009087;28;20104;-81
2021/12/19 01:48:21;;;;;;;19.00;14.48;;;4.60;85.30;;;;;;5000308;28;20277;-81
2021/12/19 01:50:47;;;;;;;26.45;14.90;;;4.60;85.50;;;;;;4997898;28;20034;-82
2021/12/19 01:53:14;;;;;;;21.38;15.35;;;4.70;85.40;;;;;;5002421;28;20410;-81
2021/12/19 01:55:42;;;;;;;21.67;15.63;;;4.60;86.30;;;;;;4976001;28;20049;-82
2021/12/19 01:58:08;;;;;;;21.95;15.38;;;4.50;85.90;;;;;;5004228;28;20463;-82
2021/12/19 02:00:39;;;;;;;19.00;14.55;;;4.60;85.80;;;;;;5003683;28;20030;-82
2021/12/19 02:03:07;;;;;;;16.00;12.55;;;4.70;85.60;;;;;;4980110;28;20120;-82
2021/12/19 02:05:33;;;;;;;41.78;16.88;;;4.70;85.20;;;;;;4994888;28;20042;-82
2021/12/19 02:08:00;;;;;;;18.35;13.68;;;4.70;85.30;;;;;;4997504;28;20052;-82
2021/12/19 02:10:29;;;;;;;16.65;13.43;;;4.70;85.50;;;;;;4991006;28;20380;-82
2021/12/19 02:12:56;;;;;;;20.38;14.20;;;4.70;85.60;;;;;;4993862;28;20109;-82
2021/12/19 02:15:24;;;;;;;21.38;14.40;;;4.80;85.80;;;;;;4998433;28;20038;-81
2021/12/19 02:17:52;;;;;;;23.05;14.68;;;4.80;85.60;;;;;;5008351;28;20137;-81
2021/12/19 02:20:19;;;;;;;70.70;19.65;;;4.60;85.40;;;;;;5009564;28;20475;-81
2021/12/19 02:22:45;;;;;;;19.88;14.52;;;4.60;85.50;;;;;;4975610;28;20104;-81
2021/12/19 02:25:11;;;;;;;20.50;15.13;;;4.50;85.70;;;;;;4986419;28;20627;-80
2021/12/19 02:27:38;;;;;;;18.17;13.95;;;4.50;86.00;;;;;;4986369;28;20429;-81
2021/12/19 02:30:07;;;;;;;19.77;14.23;;;4.40;86.30;;;;;;4986474;28;20446;-80
2021/12/19 02:32:34;;;;;;;27.83;12.97;;;4.50;86.20;;;;;;5009910;28;20088;-81
2021/12/19 02:35:04;;;;;;;17.85;13.52;;;4.40;85.80;;;;;;5002934;28;20297;-81
2021/12/19 02:48:15;;;;;;;17.10;12.70;;;4.40;86.40;;;;;;5005516;28;20057;-81
2021/12/19 02:50:49;;;;;;;39.42;14.93;;;4.40;86.00;;;;;;5011497;28;20037;-80
2021/12/19 02:53:19;;;;;;;42.88;15.75;;;4.50;85.80;;;;;;5010802;28;20037;-80
2021/12/19 02:55:45;;;;;;;16.77;13.10;;;4.50;85.70;;;;;;4997393;28;20026;-80
2021/12/19 02:58:11;;;;;;;62.78;20.40;;;4.50;85.70;;;;;;4985283;28;20034;-80
2021/12/19 03:00:38;;;;;;;15.55;12.45;;;4.10;86.60;;;;;;5005904;28;20035;-80
2021/12/19 03:03:05;;;;;;;30.55;14.40;;;4.00;87.00;;;;;;5005579;28;20066;-80
2021/12/19 03:05:32;;;;;;;20.27;11.38;;;4.00;87.20;;;;;;5012459;28;20041;-80
2021/12/19 03:08:00;;;;;;;14.13;11.15;;;3.70;87.50;;;;;;4992424;28;20046;-81
2021/12/19 03:11:01;;;;;;;44.63;13.15;;;3.80;87.80;;;;;;4997301;28;20038;-81
2021/12/19 03:18:27;;;;;;;15.18;11.35;;;4.00;87.10;;;;;;5010501;28;20045;-81
2021/12/19 03:20:52;;;;;;;12.55;10.55;;;4.20;87.10;;;;;;5007987;28;20026;-82
2021/12/19 03:23:18;;;;;;;13.63;10.55;;;4.30;86.80;;;;;;5007424;28;20065;-81
2021/12/19 03:25:44;;;;;;;16.60;10.40;;;4.40;86.40;;;;;;5001075;28;20046;-81
2021/12/19 03:28:11;;;;;;;96.65;22.38;;;4.30;86.40;;;;;;5004973;28;20058;-81
2021/12/19 03:30:38;;;;;;;12.13;10.18;;;3.90;87.20;;;;;;5013940;28;20045;-81
2021/12/19 03:33:04;;;;;;;12.82;10.98;;;3.90;88.20;;;;;;5014015;28;20405;-81
2021/12/19 03:35:30;;;;;;;20.90;11.40;;;3.80;88.90;;;;;;4995090;28;20105;-82
2021/12/19 03:37:58;;;;;;;58.65;18.48;;;3.90;88.70;;;;;;4998480;28;20045;-81
2021/12/19 03:40:35;;;;;;;33.67;12.00;;;3.70;88.20;;;;;;4978992;28;20045;-82
2021/12/19 03:43:12;;;;;;;12.02;8.82;;;3.50;89.60;;;;;;4988974;28;20104;-82
2021/12/19 03:45:38;;;;;;;11.25;8.48;;;3.60;89.40;;;;;;5006919;28;20034;-81
2021/12/19 03:48:08;;;;;;;86.88;18.70;;;3.60;88.90;;;;;;4989334;28;20045;-82
2021/12/19 03:50:34;;;;;;;11.50;9.00;;;3.30;89.20;;;;;;5010213;28;20034;-81
2021/12/19 03:53:00;;;;;;;10.25;7.72;;;3.30;90.30;;;;;;4988706;28;20033;-82
2021/12/19 03:55:28;;;;;;;9.15;7.70;;;3.40;90.00;;;;;;5014412;28;20112;-82
2021/12/19 03:57:57;;;;;;;13.13;7.57;;;3.40;89.90;;;;;;5013736;28;20061;-81
2021/12/19 04:00:25;;;;;;;23.50;9.32;;;3.70;89.40;;;;;;4995901;28;20490;-82
2021/12/19 04:02:58;;;;;;;11.50;7.75;;;3.60;88.90;;;;;;5002902;28;20061;-82
2021/12/19 04:05:25;;;;;;;10.45;6.85;;;3.40;89.70;;;;;;4985525;28;20050;-82
2021/12/19 04:07:51;;;;;;;27.58;8.35;;;3.50;89.20;;;;;;4996149;28;20038;-82
2021/12/19 04:10:17;;;;;;;9.95;7.50;;;3.60;88.60;;;;;;4978232;28;20100;-81
2021/12/19 04:12:44;;;;;;;40.80;13.25;;;3.80;88.20;;;;;;5001844;28;20042;-80
2021/12/19 04:15:11;;;;;;;10.52;8.32;;;3.80;87.40;;;;;;5003861;28;20062;-80
2021/12/19 04:17:38;;;;;;;13.15;7.78;;;3.80;87.80;;;;;;4999394;28;20391;-80
2021/12/19 04:20:04;;;;;;;10.75;8.05;;;3.80;87.50;;;;;;4977768;28;20041;-80
2021/12/19 04:22:30;;;;;;;62.58;11.57;;;3.70;87.00;;;;;;4977682;28;20038;-81
2021/12/19 04:24:56;;;;;;;10.75;8.15;;;3.60;87.40;;;;;;5003246;28;20041;-82
2021/12/19 04:27:22;;;;;;;8.80;7.25;;;3.60;88.20;;;;;;5008852;28;20030;-83
2021/12/19 04:29:50;;;;;;;11.93;8.25;;;3.60;88.00;;;;;;5013870;28;20034;-81
2021/12/19 04:32:17;;;;;;;156.07;17.55;;;3.70;88.10;;;;;;5003456;28;20026;-81
2021/12/19 04:34:43;;;;;;;12.98;8.55;;;3.70;87.80;;;;;;5013999;28;20092;-81
2021/12/19 04:37:30;;;;;;;10.95;8.27;;;3.80;87.80;;;;;;4982612;28;20039;-82
2021/12/19 04:40:15;;;;;;;20.50;8.02;;;3.90;87.90;;;;;;4994553;28;20372;-81
2021/12/19 04:44:10;;;;;;;13.38;8.60;;;4.00;87.70;;;;;;4994948;28;20505;-83
2021/12/19 04:51:22;;;;;;;12.48;8.95;;;4.20;87.60;;;;;;5014015;28;20048;-83
2021/12/19 05:04:03;;;;;;;12.40;9.02;;;4.20;87.80;;;;;;4998958;28;20037;-83
2021/12/19 05:14:23;;;;;;;18.58;9.18;;;3.90;88.20;;;;;;5014035;28;20046;-83
2021/12/19 05:16:50;;;;;;;99.65;14.25;;;3.80;89.10;;;;;;4992551;28;20046;-83
2021/12/19 05:19:42;;;;;;;127.13;15.73;;;3.80;89.20;;;;;;5014085;28;20065;-83
2021/12/19 05:22:08;;;;;;;152.98;16.85;;;3.80;89.70;;;;;;5006164;28;20030;-83
2021/12/19 05:27:06;;;;;;;11.95;9.38;;;3.50;90.50;;;;;;5011135;28;20128;-82
2021/12/19 05:29:33;;;;;;;13.35;9.25;;;3.60;90.70;;;;;;5001171;28;20044;-81
2021/12/19 05:31:58;;;;;;;17.25;9.38;;;3.70;90.30;;;;;;5008255;28;20394;-82
2021/12/19 05:34:25;;;;;;;48.05;11.90;;;3.80;90.20;;;;;;5012165;28;20053;-82
2021/12/19 05:47:37;;;;;;;30.30;10.35;;;4.10;90.10;;;;;;5008456;28;20092;-82
2021/12/19 05:50:04;;;;;;;77.82;13.82;;;4.10;90.00;;;;;;5007111;28;20038;-82
2021/12/19 05:52:30;;;;;;;13.43;10.80;;;4.10;89.90;;;;;;4999422;28;20121;-82
2021/12/19 05:54:56;;;;;;;15.85;11.27;;;4.20;89.70;;;;;;5011282;28;20423;-81
2021/12/19 05:57:22;;;;;;;18.30;11.55;;;4.00;89.80;;;;;;5007628;28;20423;-82
2021/12/19 05:59:48;;;;;;;12.73;9.77;;;4.10;89.70;;;;;;4999510;28;20344;-82
2021/12/19 06:02:14;;;;;;;62.88;15.70;;;4.20;89.70;;;;;;5004335;28;20041;-82
2021/12/19 06:04:39;;;;;;;36.30;12.10;;;4.20;89.60;;;;;;5008443;28;20043;-80
2021/12/19 06:07:05;;;;;;;114.22;17.58;;;4.20;89.40;;;;;;4998153;28;20045;-81
2021/12/19 06:09:31;;;;;;;32.30;12.88;;;4.10;89.30;;;;;;5011247;28;20089;-81
2021/12/19 06:11:56;;;;;;;16.20;10.95;;;3.90;90.40;;;;;;5010639;28;20474;-80
2021/12/19 06:14:23;;;;;;;39.55;11.65;;;4.00;90.40;;;;;;5010566;28;20106;-79
2021/12/19 06:16:48;;;;;;;15.73;10.90;;;4.00;90.30;;;;;;5009621;28;20038;-81
2021/12/19 06:19:14;;;;;;;15.13;11.60;;;4.10;90.50;;;;;;5009417;28;20048;-81
2021/12/19 06:21:40;;;;;;;57.88;12.90;;;4.10;90.20;;;;;;5010548;28;20042;-81
2021/12/19 06:24:06;;;;;;;13.80;10.63;;;4.20;90.10;;;;;;5010837;28;20033;-82
2021/12/19 06:26:35;;;;;;;33.33;11.95;;;4.20;90.20;;;;;;5007560;28;20029;-82
2021/12/19 06:29:02;;;;;;;15.95;11.57;;;4.30;90.20;;;;;;5011326;28;20128;-82
2021/12/19 06:31:28;;;;;;;14.85;11.65;;;4.30;90.00;;;;;;5009789;28;20502;-82
2021/12/19 06:33:54;;;;;;;189.27;22.00;;;4.40;90.00;;;;;;5005586;28;20092;-80
2021/12/19 06:36:20;;;;;;;18.88;12.82;;;4.30;89.20;;;;;;5003814;28;20169;-80
2021/12/19 06:38:45;;;;;;;64.10;13.27;;;4.10;90.30;;;;;;5010665;28;20096;-80
2021/12/19 06:41:11;;;;;;;70.28;15.55;;;4.20;90.30;;;;;;5010196;28;20034;-78
2021/12/19 06:43:37;;;;;;;26.17;12.23;;;4.20;90.20;;;;;;5009917;28;20045;-81
2021/12/19 06:46:03;;;;;;;17.52;11.77;;;4.20;90.20;;;;;;5011278;28;20029;-81
2021/12/19 06:48:29;;;;;;;53.85;15.02;;;4.20;90.10;;;;;;5008332;28;20042;-81
2021/12/19 06:50:55;;;;;;;14.93;11.18;;;4.30;90.10;;;;;;5007217;28;20026;-81
2021/12/19 06:53:21;;;;;;;46.70;12.55;;;4.30;90.10;;;;;;5007543;28;20037;-81
2021/12/19 06:55:47;;;;;;;16.92;11.98;;;4.20;90.20;;;;;;5007319;28;20037;-81
2021/12/19 06:58:13;;;;;;;32.92;12.43;;;4.20;90.40;;;;;;5009331;28;20144;-81
2021/12/19 07:00:39;;;;;;;17.20;11.30;;;4.20;90.20;;;;;;5009177;28;20408;-82
2021/12/19 07:03:05;;;;;;;49.47;14.13;;;4.20;90.20;;;;;;5007481;28;20036;-82
2021/12/19 07:05:30;;;;;;;16.60;11.77;;;4.20;90.10;;;;;;4988794;28;20140;-82
2021/12/19 07:07:56;;;;;;;45.90;14.20;;;4.20;90.20;;;;;;4998753;28;20486;-82
2021/12/19 07:10:22;;;;;;;26.63;11.38;;;4.30;90.20;;;;;;5004837;28;20050;-82
2021/12/19 07:12:47;;;;;;;21.85;12.27;;;4.40;90.10;;;;;;5006530;28;20045;-82
2021/12/19 07:15:14;;;;;;;17.75;12.48;;;4.40;90.00;;;;;;5008092;28;20092;-81
2021/12/19 07:17:40;;;;;;;21.17;12.75;;;4.40;90.00;;;;;;5003093;28;20046;-80
2021/12/19 07:20:07;;;;;;;17.70;12.18;;;4.50;90.10;;;;;;4985998;28;20134;-80
2021/12/19 07:22:32;;;;;;;18.15;12.98;;;4.50;90.00;;;;;;4989487;28;20073;-81
2021/12/19 07:24:58;;;;;;;26.05;13.73;;;4.50;90.00;;;;;;5001674;28;20464;-88
2021/12/19 07:27:24;;;;;;;50.85;15.95;;;4.60;89.90;;;;;;5001053;28;20097;-80
2021/12/19 07:29:49;;;;;;;42.60;13.52;;;4.50;89.40;;;;;;4998317;28;20092;-80
2021/12/19 07:32:15;;;;;;;25.05;13.52;;;4.50;89.70;;;;;;5007321;28;20038;-79
2021/12/19 07:34:42;;;;;;;25.42;12.77;;;4.50;89.60;;;;;;4989883;28;20038;-80
2021/12/19 07:37:08;;;;;;;145.75;22.00;;;4.40;89.60;;;;;;5003673;28;20401;-81
2021/12/19 07:42:08;;;;;;;133.02;26.30;;;4.10;90.20;;;;;;5009836;28;20132;-81
2021/12/19 07:44:34;;;;;;;72.32;20.52;;;3.80;90.80;;;;;;4996989;28;20034;-83
2021/12/19 07:47:02;;;;;;;23.52;13.13;;;3.80;91.20;;;;;;4987319;28;20061;-79
2021/12/19 07:49:28;;;;;;;18.90;13.95;;;3.80;91.00;;;;;;5000687;28;20046;-79
2021/12/19 07:51:55;;;;;;;18.40;13.27;;;4.00;90.80;;;;;;4996510;28;20041;-83
2021/12/19 07:54:21;;;;;;;132.18;23.77;;;4.20;90.70;;;;;;4996091;28;20072;-82
2021/12/19 07:56:46;;;;;;;22.92;14.43;;;4.20;90.50;;;;;;5014327;28;20482;-82
2021/12/19 07:59:13;;;;;;;19.25;13.98;;;4.20;90.50;;;;;;5013665;28;20678;-83
2021/12/19 08:01:38;;;;;;;26.25;14.05;;;4.30;90.40;;;;;;4997962;28;20049;-82
2021/12/19 08:04:04;;;;;;;18.90;11.77;;;4.30;90.30;;;;;;5000567;28;20397;-82
2021/12/19 08:06:30;;;;;;;23.52;13.82;;;4.30;90.20;;;;;;5015114;28;20096;-82
2021/12/19 08:08:58;;;;;;;27.73;14.43;;;4.20;90.10;;;;;;5014241;28;20046;-83
2021/12/19 08:11:41;;;;;;;18.52;13.60;;;4.10;90.40;;;;;;5015854;28;20034;-82
2021/12/19 08:14:09;;;;;;;31.80;14.52;;;4.20;90.40;;;;;;4999860;28;20129;-82
2021/12/19 08:16:36;;;;;;;81.03;22.17;;;4.30;90.20;;;;;;5011928;28;21495;-82
2021/12/19 08:19:02;;;;;;;29.98;15.05;;;4.30;90.00;;;;;;5014970;28;20136;-83
2021/12/19 08:21:27;;;;;;;37.85;16.70;;;4.00;90.50;;;;;;4997533;28;20487;-82
2021/12/19 08:23:57;;;;;;;64.28;18.05;;;4.00;90.70;;;;;;5015472;28;20034;-82
2021/12/19 08:26:23;;;;;;;38.28;15.75;;;4.10;90.70;;;;;;5015085;28;20442;-82
2021/12/19 08:28:49;;;;;;;25.35;15.10;;;4.00;90.60;;;;;;5012309;28;20049;-82
2021/12/19 08:31:14;;;;;;;21.77;14.77;;;4.10;90.70;;;;;;5014314;28;20098;-83
2021/12/19 08:33:40;;;;;;;21.20;14.50;;;4.10;90.60;;;;;;5013764;28;20044;-82
2021/12/19 08:36:07;;;;;;;129.40;22.42;;;4.30;90.60;;;;;;5013464;28;20042;-82
2021/12/19 08:38:33;;;;;;;24.25;13.85;;;4.30;89.70;;;;;;5013066;28;20355;-82
2021/12/19 08:40:59;;;;;;;21.00;14.68;;;4.40;90.00;;;;;;5006276;28;20054;-83
2021/12/19 08:43:25;;;;;;;21.17;14.60;;;4.50;89.90;;;;;;5002916;28;20435;-83
2021/12/19 08:45:51;;;;;;;109.10;24.42;;;4.60;89.90;;;;;;4994643;28;20048;-80
2021/12/19 08:48:18;;;;;;;39.10;14.88;;;4.60;89.10;;;;;;5013374;28;20056;-80
2021/12/19 08:50:45;;;;;;;22.92;15.43;;;4.60;89.20;;;;;;5012900;28;20053;-80
2021/12/19 08:53:12;;;;;;;19.33;13.02;;;4.70;89.20;;;;;;5013961;28;20398;-81
2021/12/19 08:55:37;;;;;;;23.75;15.18;;;4.40;89.00;;;;;;5011522;28;20060;-80
2021/12/19 08:58:04;;;;;;;99.03;19.75;;;4.50;89.40;;;;;;4997930;28;20034;-80
2021/12/19 09:00:31;;;;;;;36.83;15.20;;;4.20;89.70;;;;;;4997628;28;20034;-80
2021/12/19 09:02:57;;;;;;;22.67;13.80;;;4.30;90.10;;;;;;4998029;28;20038;-80
2021/12/19 09:05:27;;;;;;;25.00;14.07;;;4.30;90.00;;;;;;5012500;28;20034;-80
2021/12/19 09:07:53;;;;;;;99.70;25.83;;;4.40;89.90;;;;;;4987949;28;20073;-80
2021/12/19 09:10:19;;;;;;;24.00;15.75;;;4.40;90.10;;;;;;5005800;28;20042;-81
2021/12/19 09:12:46;;;;;;;27.73;15.43;;;4.50;90.00;;;;;;5001501;28;20037;-81
2021/12/19 09:15:12;;;;;;;61.55;18.23;;;4.60;89.90;;;;;;5001341;28;20478;-82
2021/12/19 09:17:38;;;;;;;81.28;20.42;;;4.60;89.40;;;;;;5014632;28;20030;-82
2021/12/19 09:20:05;;;;;;;23.48;14.98;;;4.60;89.30;;;;;;5004713;28;20084;-82
2021/12/19 09:22:32;;;;;;;60.28;19.42;;;4.50;89.80;;;;;;5004647;28;20134;-83
2021/12/19 09:24:58;;;;;;;88.55;21.10;;;4.40;89.40;;;;;;5015084;28;20034;-82
2021/12/19 09:27:24;;;;;;;82.18;21.95;;;4.30;90.00;;;;;;5015069;28;20056;-82
2021/12/19 09:29:49;;;;;;;19.95;13.75;;;4.30;90.10;;;;;;5003579;28;20129;-82
2021/12/19 09:32:15;;;;;;;26.45;16.30;;;4.30;90.10;;;;;;5014461;28;20042;-81
2021/12/19 09:34:41;;;;;;;53.90;17.20;;;4.40;90.10;;;;;;5005922;28;20042;-80
2021/12/19 09:37:07;;;;;;;42.20;15.45;;;4.40;90.10;;;;;;5009185;28;20049;-81
2021/12/19 09:39:33;;;;;;;36.67;15.35;;;4.40;90.00;;;;;;5007600;28;20112;-81
2021/12/19 09:42:02;;;;;;;118.47;22.30;;;4.40;90.00;;;;;;4996009;28;20046;-83
2021/12/19 09:44:27;;;;;;;27.23;15.80;;;4.30;90.20;;;;;;5013627;28;20053;-85
2021/12/19 09:46:53;;;;;;;23.13;14.55;;;4.20;90.60;;;;;;5015066;28;20104;-86
2021/12/19 09:49:21;;;;;;;23.00;14.32;;;4.30;90.60;;;;;;5007372;28;20038;-79
2021/12/19 09:51:48;;;;;;;28.45;15.63;;;4.30;90.60;;;;;;4994888;28;20038;-81
2021/12/19 09:54:15;;;;;;;52.70;16.45;;;4.50;90.40;;;;;;5003046;28;20556;-80
2021/12/19 09:56:42;;;;;;;40.38;17.17;;;4.50;90.20;;;;;;4993654;28;20041;-79
2021/12/19 09:59:13;;;;;;;32.67;16.50;;;4.60;90.00;;;;;;5015538;28;20458;-78
2021/12/19 10:01:40;;;;;;;25.33;15.85;;;4.70;89.90;;;;;;5012722;28;20061;-80
2021/12/19 10:04:35;;;;;;;31.70;15.00;;;4.70;89.60;;;;;;4999413;28;20026;-79
2021/12/19 10:07:05;;;;;;;26.83;15.98;;;4.80;89.60;;;;;;5014447;28;20136;-81
2021/12/19 10:09:31;;;;;;;;;;;4.80;89.20;;;;;;5013174;28;20108;-77
2021/12/19 10:12:11;;;;;;;21.92;13.90;;;4.80;89.10;;;;;;5012109;28;19909;-78
2021/12/19 10:14:37;;;;;;;65.15;27.02;;;4.80;89.00;;;;;;4992656;28;20095;-79
2021/12/19 10:17:06;;;;;;;25.40;16.45;;;4.70;89.20;;;;;;5006571;28;20053;-80
2021/12/19 10:19:52;;;;;;;39.90;22.55;;;4.60;89.70;;;;;;5010133;28;20030;-79
2021/12/19 10:22:33;;;;;;;30.85;18.52;;;4.60;89.60;;;;;;4980411;28;20034;-80
2021/12/19 10:25:14;;;;;;;33.85;17.58;;;4.60;89.60;;;;;;5005806;28;20116;-81
2021/12/19 10:27:39;;;;;;;;;;;4.50;89.50;;;;;;4979895;28;20054;-80
2021/12/19 10:30:43;;;;;;;21.90;14.68;;;4.40;89.80;;;;;;4987974;28;20020;-80
2021/12/19 10:33:23;;;;;;;41.95;20.25;;;4.30;90.10;;;;;;4992870;28;20164;-80
2021/12/19 10:35:54;;;;;;;25.52;16.23;;;4.30;90.00;;;;;;5004528;28;20038;-77
2021/12/19 10:38:28;;;;;;;65.70;29.02;;;4.40;90.10;;;;;;5006212;28;20046;-79
2021/12/19 10:40:59;;;;;;;51.83;23.33;;;4.20;90.00;;;;;;4996875;28;20086;-78
2021/12/19 10:43:28;;;;;;;25.13;16.77;;;4.20;90.20;;;;;;4993770;28;20039;-78
2021/12/19 10:45:58;;;;;;;37.03;23.70;;;4.40;90.10;;;;;;4998361;28;20034;-79
2021/12/19 10:48:31;;;;;;;24.27;16.08;;;4.40;90.10;;;;;;4980096;28;20478;-78
2021/12/19 10:51:04;;;;;;;28.98;19.05;;;4.50;90.00;;;;;;5003221;28;20039;-79
2021/12/19 10:53:35;;;;;;;49.17;24.90;;;4.50;89.90;;;;;;4996296;28;20053;-79
2021/12/19 10:56:06;;;;;;;28.10;16.38;;;4.40;90.10;;;;;;4995048;28;20042;-78
2021/12/19 10:58:39;;;;;;;28.80;18.10;;;4.40;90.20;;;;;;4986488;28;20106;-79
2021/12/19 11:01:31;;;;;;;27.70;17.80;;;4.60;90.10;;;;;;4991910;28;20061;-80
2021/12/19 11:04:21;;;;;;;35.03;18.92;;;4.70;89.90;;;;;;5002450;28;20399;-79
2021/12/19 11:06:47;;;;;;;26.85;17.90;;;4.70;89.30;;;;;;4996240;28;20509;-82
2021/12/19 11:09:21;;;;;;;34.28;19.65;;;4.70;89.30;;;;;;5026116;28;20037;-83
2021/12/19 11:11:57;;;;;;;27.67;17.77;;;4.70;89.10;;;;;;5004069;28;20034;-84
2021/12/19 11:14:37;;;;;;;26.15;17.17;;;4.80;89.10;;;;;;4998481;28;20081;-83
2021/12/19 11:17:04;;;;;;;26.55;16.23;;;4.70;89.30;;;;;;4997608;28;20030;-83
2021/12/19 11:19:30;;;;;;;22.85;15.52;;;4.80;89.50;;;;;;5003675;28;20039;-86
2021/12/19 11:21:56;;;;;;;34.63;22.95;;;4.80;89.10;;;;;;5006012;28;20084;-83
2021/12/19 11:24:24;;;;;;;43.28;27.15;;;4.90;89.00;;;;;;4997162;28;20041;-82
2021/12/19 11:26:54;;;;;;;25.35;17.88;;;4.80;88.70;;;;;;4986375;28;20131;-83
2021/12/19 11:29:20;;;;;;;25.85;17.50;;;4.70;88.90;;;;;;5008126;28;20042;-82
2021/12/19 11:31:50;;;;;;;34.38;22.88;;;4.80;88.90;;;;;;5002638;28;20030;-82
2021/12/19 11:34:19;;;;;;;25.05;17.38;;;4.90;89.40;;;;;;4991594;28;20116;-83
2021/12/19 11:37:08;;;;;;;31.08;20.50;;;5.00;89.10;;;;;;5007476;28;20127;-81
2021/12/19 11:39:40;;;;;;;26.38;19.20;;;5.10;88.80;;;;;;4983859;28;20038;-82
2021/12/19 11:42:09;;;;;;;31.35;19.65;;;5.10;88.20;;;;;;5000720;28;20118;-84
2021/12/19 11:47:38;;;;;;;26.83;17.75;;;5.00;88.30;;;;;;5011664;28;20026;-83
2021/12/19 11:50:29;;;;;;;29.30;18.73;;;4.90;88.50;;;;;;5011849;28;20077;-84
2021/12/19 11:53:07;;;;;;;30.58;19.75;;;5.00;88.70;;;;;;4998772;28;20417;-82
2021/12/19 11:55:47;;;;;;;37.20;23.40;;;5.10;88.50;;;;;;5010289;28;20050;-82
2021/12/19 11:58:14;;;;;;;44.83;28.27;;;5.20;88.20;;;;;;5002438;28;20034;-81
2021/12/19 12:01:01;;;;;;;29.13;18.73;;;5.10;88.20;;;;;;5012331;28;20040;-82
2021/12/19 12:03:30;;;;;;;33.45;20.65;;;5.20;88.30;;;;;;5013320;28;20037;-82
2021/12/19 12:05:59;;;;;;;43.08;23.05;;;5.20;88.10;;;;;;5011290;28;20109;-83
2021/12/19 12:08:26;;;;;;;32.28;21.70;;;5.30;87.90;;;;;;4997226;28;20033;-82
2021/12/19 12:10:56;;;;;;;35.80;23.95;;;5.30;88.00;;;;;;5014263;28;20046;-82
2021/12/19 12:13:42;;;;;;;30.33;19.58;;;5.30;87.80;;;;;;4996081;28;20073;-82
2021/12/19 12:16:22;;;;;;;28.20;19.38;;;5.40;87.80;;;;;;5011874;28;20044;-82
2021/12/19 12:18:59;;;;;;;34.35;23.08;;;5.40;87.90;;;;;;5015572;28;20112;-82
2021/12/19 12:21:30;;;;;;;32.22;21.63;;;5.40;87.60;;;;;;5008819;28;20038;-82
2021/12/19 12:24:02;;;;;;;;;;;5.40;87.40;;;;;;4996985;28;20038;-82
2021/12/19 12:26:54;;;;;;;29.23;19.48;;;5.30;87.40;;;;;;5008276;28;19910;-81
2021/12/19 12:29:21;;;;;;;36.38;24.50;;;5.20;87.50;;;;;;4997966;28;20128;-82
2021/12/19 12:31:48;;;;;;;43.45;27.40;;;5.30;87.80;;;;;;5010552;28;20084;-81
2021/12/19 12:34:16;;;;;;;30.85;21.67;;;5.20;87.60;;;;;;4995464;28;20110;-82
2021/12/19 12:36:42;;;;;;;38.20;24.58;;;5.20;87.80;;;;;;5003890;28;20039;-81
2021/12/19 12:39:17;;;;;;;52.08;34.13;;;5.30;87.80;;;;;;4998674;28;20038;-82
2021/12/19 12:44:16;;;;;;;33.97;23.10;;;5.00;87.20;;;;;;5012553;28;20425;-82
2021/12/19 12:46:42;;;;;;;32.45;21.38;;;5.10;87.70;;;;;;5009845;28;20097;-78
2021/12/19 12:49:16;;;;;;;34.58;22.67;;;5.10;88.00;;;;;;4991460;28;20580;-83
2021/12/19 12:51:46;;;;;;;34.17;24.30;;;5.30;87.90;;;;;;5012442;28;20108;-84
2021/12/19 12:54:20;;;;;;;57.42;38.08;;;5.50;87.70;;;;;;5011707;28;20526;-84
2021/12/19 12:56:50;;;;;;;34.67;23.08;;;5.50;86.10;;;;;;5007690;28;20479;-84
2021/12/19 12:59:30;;;;;;;34.47;23.30;;;5.40;86.60;;;;;;5011144;28;20810;-83
2021/12/19 13:02:16;;;;;;;35.75;23.80;;;5.40;86.70;;;;;;4997268;28;20033;-83
2021/12/19 13:04:44;;;;;;;34.30;23.90;;;5.40;86.60;;;;;;5019152;28;20083;-84
2021/12/19 13:07:16;;;;;;;35.15;24.23;;;5.50;86.60;;;;;;5015930;28;20049;-83
2021/12/19 13:09:57;;;;;;;39.60;26.80;;;5.50;86.20;;;;;;5013653;28;20522;-82
2021/12/19 13:12:38;;;;;;;31.55;22.40;;;5.60;86.30;;;;;;4996950;28;20087;-83
2021/12/19 13:15:11;;;;;;;;;;;5.60;85.90;;;;;;5013547;28;20038;-83
2021/12/19 13:17:38;;;;;;;35.58;24.90;;;5.60;86.10;;;;;;5013254;28;19913;-83
2021/12/19 13:20:08;;;;;;;33.60;23.15;;;5.50;85.90;;;;;;5004393;28;20034;-82
2021/12/19 13:22:54;;;;;;;34.80;25.05;;;5.50;86.30;;;;;;4980274;28;20080;-83
2021/12/19 13:25:29;;;;;;;34.42;24.60;;;5.50;86.40;;;;;;5012658;28;20092;-83
2021/12/19 13:28:00;;;;;;;30.27;22.33;;;5.60;86.30;;;;;;4992787;28;20038;-84
2021/12/19 13:30:34;;;;;;;33.72;23.25;;;5.70;86.10;;;;;;5006115;28;20040;-83
2021/12/19 13:33:08;;;;;;;47.72;33.45;;;5.70;85.70;;;;;;5013789;28;20042;-83
2021/12/19 13:35:40;;;;;;;34.70;25.10;;;5.60;85.50;;;;;;5008291;28;20483;-84
2021/12/19 13:38:07;;;;;;;36.33;26.05;;;5.60;85.80;;;;;;4980315;28;20034;-83
2021/12/19 13:40:38;;;;;;;41.60;28.02;;;5.60;85.90;;;;;;5011204;28;20429;-83
2021/12/19 13:43:05;;;;;;;;;;;5.70;85.70;;;;;;4995293;28;20057;-83
2021/12/19 13:45:52;;;;;;;30.15;19.73;;;5.60;85.40;;;;;;5002294;28;19906;-83
2021/12/19 13:48:29;;;;;;;32.25;23.02;;;5.60;85.70;;;;;;5013695;28;20034;-83
2021/12/19 13:51:04;;;;;;;35.22;24.33;;;5.60;85.90;;;;;;5000327;28;20053;-83
2021/12/19 13:53:33;;;;;;;36.38;25.48;;;5.60;86.00;;;;;;4989773;28;20347;-84
2021/12/19 13:56:14;;;;;;;33.38;25.00;;;5.60;86.20;;;;;;4998815;28;20073;-83
2021/12/19 13:58:48;;;;;;;47.97;33.53;;;5.70;86.00;;;;;;4981755;28;20029;-83
2021/12/19 14:01:34;;;;;;;33.70;24.58;;;5.80;85.50;;;;;;5006203;28;20488;-83